Terminal Aerodrome Forecast
Issued by NWS Pocatello, ID

Home | Current Version | Previous Version | Text Only | Print | Product List | Glossary On
Versions: 1 2 3 4 5 6 7 8 9 10 11 12 13 14
000
FTUS45 KPIH 180900 AAA
TAFIDA
TAF AMD
KIDA 180942Z 1810/1906 13008KT P6SM -SHRA VCTS SCT060 BKN120CB
     FM181900 22012G20KT P6SM VCTS SCT060CB BKN120
     FM190300 VRB05KT P6SM VCSH SCT120=

USA.gov is the U.S. government's official web portal to all federal, state and local government web resources and services.